createdAt,value
2018-03-10T00:01:58.458Z,29.77
2018-03-10T00:04:24.980Z,27.62
2018-03-10T00:06:51.288Z,29.05
2018-03-10T00:09:17.560Z,30.00
2018-03-10T00:11:43.849Z,29.15
2018-03-10T00:14:10.270Z,30.17
2018-03-10T00:16:36.638Z,30.95
2018-03-10T00:19:02.923Z,30.00
2018-03-10T00:21:29.345Z,28.58
2018-03-10T00:23:55.640Z,29.92
2018-03-10T00:26:22.659Z,29.00
2018-03-10T00:28:48.955Z,28.60
2018-03-10T00:31:15.233Z,29.80
2018-03-10T00:33:41.491Z,28.70
2018-03-10T00:36:07.808Z,29.77
2018-03-10T00:38:34.061Z,27.48
2018-03-10T00:41:01.056Z,29.60
2018-03-10T00:43:27.320Z,28.12
2018-03-10T00:45:53.570Z,24.00
2018-03-10T00:48:20.627Z,28.98
2018-03-10T00:50:46.940Z,29.90
2018-03-10T00:53:13.205Z,29.73
2018-03-10T00:55:39.463Z,27.02
2018-03-10T00:58:05.756Z,28.15
2018-03-10T01:00:32.022Z,26.90
2018-03-10T01:02:58.273Z,27.77
2018-03-10T01:05:24.538Z,27.42
2018-03-10T01:07:50.809Z,30.20
2018-03-10T01:10:17.114Z,26.75
2018-03-10T01:12:44.490Z,28.10
2018-03-10T01:15:10.734Z,30.20
2018-03-10T01:17:37.001Z,29.58
2018-03-10T01:20:04.092Z,27.55
2018-03-10T01:22:30.344Z,27.95
2018-03-10T01:24:56.605Z,27.90
2018-03-10T01:27:23.663Z,29.00
2018-03-10T01:29:49.921Z,28.35
2018-03-10T01:32:16.196Z,27.52
2018-03-10T01:34:43.241Z,30.85
2018-03-10T01:37:10.250Z,28.73
2018-03-10T01:39:36.501Z,27.17
2018-03-10T01:42:02.797Z,27.42
2018-03-10T01:44:29.036Z,27.83
2018-03-10T01:46:55.364Z,27.17
2018-03-10T01:49:22.608Z,29.45
2018-03-10T01:51:48.879Z,29.30
2018-03-10T01:54:15.252Z,25.60
2018-03-10T01:56:41.551Z,23.83
2018-03-10T01:59:07.808Z,26.87
2018-03-10T02:01:34.104Z,27.65
2018-03-10T02:04:00.389Z,26.60
2018-03-10T02:06:26.656Z,25.02
2018-03-10T02:08:52.955Z,27.15
2018-03-10T02:11:19.228Z,27.67
2018-03-10T02:13:45.543Z,27.70
2018-03-10T02:16:11.813Z,27.02
2018-03-10T02:18:38.116Z,28.67
2018-03-10T02:21:04.445Z,26.95
2018-03-10T02:23:30.708Z,27.75
2018-03-10T02:25:56.984Z,27.05
2018-03-10T02:28:23.280Z,25.83
2018-03-10T02:30:49.527Z,25.17
2018-03-10T02:33:15.861Z,28.73
2018-03-10T02:35:42.926Z,27.27
2018-03-10T02:38:09.140Z,26.52
2018-03-10T02:40:35.415Z,26.52
2018-03-10T02:43:02.444Z,26.33
2018-03-10T02:45:28.728Z,24.83
2018-03-10T02:47:55.088Z,25.35
2018-03-10T02:50:21.360Z,24.15
2018-03-10T02:52:48.384Z,24.85
2018-03-10T02:55:14.672Z,26.60
2018-03-10T02:57:40.948Z,27.35
2018-03-10T03:00:07.227Z,25.77
2018-03-10T03:02:33.519Z,25.65
2018-03-10T03:05:00.516Z,27.48
2018-03-10T03:07:26.801Z,23.70
2018-03-10T03:09:53.815Z,27.33
2018-03-10T03:12:20.096Z,24.40
2018-03-10T03:14:47.100Z,27.23
2018-03-10T03:17:13.375Z,25.88
2018-03-10T03:19:39.627Z,24.25
2018-03-10T03:22:05.884Z,26.70
2018-03-10T03:24:32.202Z,27.20
2018-03-10T03:26:58.445Z,27.77
2018-03-10T03:29:24.712Z,27.80
2018-03-10T03:31:51.769Z,25.35
2018-03-10T03:34:18.021Z,24.58
2018-03-10T03:36:44.319Z,23.15
2018-03-10T03:39:11.340Z,25.60
2018-03-10T03:41:37.608Z,26.42
2018-03-10T03:44:03.856Z,22.45
2018-03-10T03:46:30.144Z,25.55
2018-03-10T03:48:56.416Z,24.10
2018-03-10T03:51:22.727Z,24.75
2018-03-10T03:53:49.007Z,24.02
2018-03-10T03:56:15.270Z,24.58
2018-03-10T03:58:42.266Z,22.85
2018-03-10T04:01:08.532Z,25.40
2018-03-10T04:03:34.792Z,23.10
2018-03-10T04:08:34.133Z,23.17
2018-03-10T04:11:00.407Z,23.65
2018-03-10T04:13:26.669Z,22.80
2018-03-10T04:15:52.992Z,21.37
2018-03-10T04:18:19.988Z,24.42
2018-03-10T04:20:46.233Z,19.87
2018-03-10T04:23:12.513Z,24.98
2018-03-10T04:25:38.805Z,23.00
2018-03-10T04:28:05.083Z,22.25
2018-03-10T04:30:31.361Z,21.67
2018-03-10T04:32:57.608Z,22.65
2018-03-10T04:35:24.684Z,21.98
2018-03-10T04:37:50.952Z,22.85
2018-03-10T04:40:17.204Z,21.60
2018-03-10T04:42:43.472Z,22.67
2018-03-10T04:45:09.757Z,22.13
2018-03-10T04:47:36.000Z,20.75
2018-03-10T04:50:03.016Z,19.60
2018-03-10T04:52:29.558Z,18.12
2018-03-10T04:54:55.819Z,21.02
2018-03-10T04:57:22.821Z,19.33
2018-03-10T04:59:49.104Z,20.02
2018-03-10T05:02:15.396Z,19.98
2018-03-10T05:04:41.664Z,19.60
2018-03-10T05:07:07.945Z,19.40
2018-03-10T05:09:34.212Z,18.58
2018-03-10T05:12:01.200Z,18.33
2018-03-10T05:14:27.740Z,19.00
2018-03-10T05:16:54.005Z,17.35
2018-03-10T05:19:20.252Z,18.52
2018-03-10T05:21:47.543Z,18.05
2018-03-10T05:24:13.791Z,17.52
2018-03-10T05:26:40.035Z,15.63
2018-03-10T05:29:06.353Z,16.25
2018-03-10T05:31:32.601Z,17.77
2018-03-10T05:33:58.852Z,16.95
2018-03-10T05:36:25.872Z,16.60
2018-03-10T05:38:52.132Z,15.63
2018-03-10T05:41:19.161Z,17.10
2018-03-10T05:43:45.443Z,17.87
2018-03-10T05:46:11.710Z,18.20
2018-03-10T05:48:37.996Z,16.83
2018-03-10T05:51:04.284Z,16.45
2018-03-10T05:53:30.532Z,15.85
2018-03-10T05:55:56.798Z,15.45
2018-03-10T05:58:23.078Z,16.73
2018-03-10T06:00:49.351Z,17.12
2018-03-10T06:03:15.628Z,15.63
2018-03-10T06:05:41.904Z,16.33
2018-03-10T06:08:08.162Z,16.30
2018-03-10T06:10:34.503Z,15.90
2018-03-10T06:13:00.806Z,14.57
2018-03-10T06:15:27.112Z,13.60
2018-03-10T06:17:53.384Z,14.55
2018-03-10T06:20:19.724Z,16.02
2018-03-10T06:22:45.985Z,15.15
2018-03-10T06:25:13.001Z,16.10
2018-03-10T06:27:39.257Z,15.50
2018-03-10T06:30:05.583Z,13.82
2018-03-10T06:32:32.589Z,14.65
2018-03-10T06:34:58.896Z,14.60
2018-03-10T06:37:25.165Z,14.15
2018-03-10T06:39:51.432Z,13.25
2018-03-10T06:42:18.080Z,14.07
2018-03-10T06:44:44.338Z,13.70
2018-03-10T06:47:10.766Z,13.52
2018-03-10T06:49:37.387Z,14.05
2018-03-10T06:52:03.643Z,12.48
2018-03-10T06:54:29.890Z,12.48
2018-03-10T06:56:56.184Z,13.05
2018-03-10T06:59:22.447Z,13.45
2018-03-10T07:01:48.714Z,14.20
2018-03-10T07:04:15.768Z,13.15
2018-03-10T07:06:42.020Z,12.32
2018-03-10T07:09:08.268Z,13.68
2018-03-10T07:11:34.547Z,14.40
2018-03-10T07:14:01.573Z,11.75
2018-03-10T07:16:27.856Z,12.73
2018-03-10T07:18:54.160Z,12.20
2018-03-10T07:21:21.183Z,11.60
2018-03-10T07:23:47.479Z,12.88
2018-03-10T07:26:13.764Z,11.85
2018-03-10T07:28:40.772Z,11.43
2018-03-10T07:31:07.026Z,10.90
2018-03-10T07:33:33.296Z,12.18
2018-03-10T07:35:59.567Z,12.52
2018-03-10T07:38:25.874Z,11.80
2018-03-10T07:40:52.146Z,11.10
2018-03-10T07:43:18.413Z,11.12
2018-03-10T07:45:44.736Z,11.07
2018-03-10T07:48:11.056Z,12.30
2018-03-10T07:50:37.384Z,11.60
2018-03-10T07:53:04.404Z,10.25
2018-03-10T07:55:30.684Z,11.30
2018-03-10T07:57:56.959Z,10.88
2018-03-10T08:00:23.243Z,10.48
2018-03-10T08:02:49.544Z,10.30
2018-03-10T08:05:15.908Z,11.50
2018-03-10T08:07:42.165Z,10.77
2018-03-10T08:10:08.443Z,11.20
2018-03-10T08:12:35.476Z,11.43
2018-03-10T08:15:02.556Z,10.75
2018-03-10T08:17:28.860Z,11.23
2018-03-10T08:19:56.112Z,10.32
2018-03-10T08:22:23.120Z,10.65
2018-03-10T08:24:49.384Z,10.50
2018-03-10T08:27:16.408Z,10.93
2018-03-10T08:29:42.673Z,10.95
2018-03-10T08:32:09.069Z,10.68
2018-03-10T08:34:36.108Z,10.25
2018-03-10T08:37:02.413Z,11.55
2018-03-10T08:39:28.754Z,10.82
2018-03-10T08:41:55.729Z,10.10
2018-03-10T08:44:22.162Z,9.70
2018-03-10T08:46:49.593Z,9.17
2018-03-10T08:49:15.889Z,9.23
2018-03-10T08:51:42.157Z,9.95
2018-03-10T08:54:08.524Z,8.95
2018-03-10T08:56:34.786Z,9.88
2018-03-10T08:59:01.068Z,9.15
2018-03-10T09:01:27.353Z,10.40
2018-03-10T09:03:53.633Z,9.43
2018-03-10T09:06:19.909Z,8.70
2018-03-10T09:08:46.480Z,8.73
2018-03-10T09:11:12.913Z,8.90
2018-03-10T09:13:39.234Z,7.60
2018-03-10T09:16:06.048Z,8.90
2018-03-10T09:18:32.291Z,9.95
2018-03-10T09:20:58.604Z,9.50
2018-03-10T09:23:24.906Z,7.65
2018-03-10T09:25:51.183Z,9.57
2018-03-10T09:28:17.529Z,9.10
2018-03-10T09:30:44.137Z,6.80
2018-03-10T09:33:10.403Z,7.90
2018-03-10T09:35:37.444Z,7.50
2018-03-10T09:38:03.752Z,7.30
2018-03-10T09:40:30.045Z,7.10
2018-03-10T09:42:57.080Z,7.00
2018-03-10T09:45:23.408Z,6.45
2018-03-10T09:47:49.757Z,6.20
2018-03-10T09:50:16.068Z,6.25
2018-03-10T09:52:42.379Z,5.30
2018-03-10T09:55:08.644Z,6.12
2018-03-10T09:57:34.904Z,6.40
2018-03-10T10:00:01.193Z,6.53
2018-03-10T10:02:28.216Z,4.93
2018-03-10T10:04:54.483Z,5.53
2018-03-10T10:07:20.753Z,6.40
2018-03-10T10:09:47.025Z,6.23
2018-03-10T10:12:13.358Z,6.00
2018-03-10T10:14:39.655Z,5.00
2018-03-10T10:17:05.955Z,5.07
2018-03-10T10:19:32.229Z,5.13
2018-03-10T10:21:58.537Z,6.03
2018-03-10T10:24:24.807Z,5.33
2018-03-10T10:26:51.050Z,5.47
2018-03-10T10:29:17.620Z,5.03
2018-03-10T10:31:43.882Z,5.63
2018-03-10T10:34:10.196Z,5.27
2018-03-10T10:36:36.509Z,5.30
2018-03-10T10:39:02.808Z,5.57
2018-03-10T10:41:29.080Z,5.27
2018-03-10T10:43:55.495Z,4.73
2018-03-10T10:46:21.732Z,5.30
2018-03-10T10:48:48.039Z,5.30
2018-03-10T10:51:15.076Z,4.70
2018-03-10T10:53:41.332Z,5.40
2018-03-10T10:56:08.332Z,5.00
2018-03-10T10:58:34.588Z,5.50
2018-03-10T11:01:06.772Z,5.17
2018-03-10T11:03:33.814Z,4.53
2018-03-10T11:06:00.121Z,4.87
2018-03-10T11:08:26.361Z,5.27
2018-03-10T11:10:52.673Z,5.10
2018-03-10T11:13:19.445Z,4.83
2018-03-10T11:15:46.499Z,5.53
2018-03-10T11:18:13.792Z,5.80
2018-03-10T11:20:40.144Z,5.30
2018-03-10T11:23:06.430Z,4.60
2018-03-10T11:25:33.052Z,5.30
2018-03-10T11:28:00.031Z,6.10
2018-03-10T11:30:26.288Z,5.80
2018-03-10T11:32:52.557Z,6.30
2018-03-10T11:35:18.817Z,5.00
2018-03-10T11:37:45.070Z,5.70
2018-03-10T11:40:11.337Z,5.53
2018-03-10T11:42:39.140Z,5.50
2018-03-10T11:45:05.404Z,6.20
2018-03-10T11:47:31.700Z,5.53
2018-03-10T11:49:57.955Z,6.07
2018-03-10T11:52:24.268Z,5.00
2018-03-10T11:54:50.552Z,4.90
2018-03-10T11:57:17.548Z,4.57
2018-03-10T11:59:43.817Z,4.67
2018-03-10T12:02:10.084Z,5.30
2018-03-10T12:04:36.415Z,5.60
2018-03-10T12:07:02.634Z,4.87
2018-03-10T12:09:28.907Z,5.40
2018-03-10T12:11:55.179Z,5.13
2018-03-10T12:14:22.242Z,6.13
2018-03-10T12:16:48.511Z,4.60
2018-03-10T12:19:14.800Z,4.50
2018-03-10T12:21:41.833Z,4.50
2018-03-10T12:24:08.388Z,5.63
2018-03-10T12:26:34.676Z,4.73
2018-03-10T12:29:00.932Z,5.00
2018-03-10T12:31:28.308Z,4.50
2018-03-10T12:33:54.556Z,4.73
2018-03-10T12:36:20.828Z,4.70
2018-03-10T12:38:47.132Z,4.83
2018-03-10T12:41:13.410Z,4.90
2018-03-10T12:43:39.684Z,4.50
2018-03-10T12:46:06.011Z,5.13
2018-03-10T12:48:32.284Z,4.57
2018-03-10T12:50:58.545Z,5.20
2018-03-10T12:53:24.852Z,4.60
2018-03-10T12:55:51.847Z,5.20
2018-03-10T12:58:18.099Z,5.03
2018-03-10T13:00:45.398Z,5.10
2018-03-10T13:03:11.648Z,5.43
2018-03-10T13:05:37.908Z,3.50
2018-03-10T13:08:04.225Z,4.77
2018-03-10T13:10:30.481Z,4.77
2018-03-10T13:12:56.767Z,4.40
2018-03-10T13:15:23.073Z,4.93
2018-03-10T13:17:49.417Z,4.37
2018-03-10T13:20:15.699Z,4.10
2018-03-10T13:22:41.968Z,3.80
2018-03-10T13:25:08.950Z,3.50
2018-03-10T13:27:35.208Z,2.80
2018-03-10T13:30:01.483Z,4.10
2018-03-10T13:32:27.773Z,3.80
2018-03-10T13:34:54.041Z,2.57
2018-03-10T13:37:20.680Z,3.20
2018-03-10T13:39:46.947Z,3.40
2018-03-10T13:42:13.204Z,2.60
2018-03-10T13:44:39.477Z,2.70
2018-03-10T13:47:05.780Z,2.80
2018-03-10T13:49:32.053Z,3.23
2018-03-10T13:51:58.316Z,3.17
2018-03-10T13:54:25.861Z,2.60
2018-03-10T13:56:52.133Z,3.43
2018-03-10T13:59:19.168Z,3.70
2018-03-10T14:01:46.200Z,3.40
2018-03-10T14:04:24.813Z,3.57
2018-03-10T14:06:51.079Z,4.20
2018-03-10T14:09:17.343Z,2.93
2018-03-10T14:11:43.719Z,3.03
2018-03-10T14:14:09.989Z,3.47
2018-03-10T14:16:36.231Z,2.60
2018-03-10T14:19:02.554Z,2.43
2018-03-10T14:21:28.826Z,2.60
2018-03-10T14:23:55.082Z,2.50
2018-03-10T14:26:22.095Z,3.00
2018-03-10T14:28:48.376Z,2.60
2018-03-10T14:31:14.675Z,3.07
2018-03-10T14:33:40.994Z,3.30
2018-03-10T14:36:07.288Z,3.27
2018-03-10T14:38:33.591Z,3.37
2018-03-10T14:43:32.752Z,3.17
2018-03-10T14:45:59.036Z,3.00
2018-03-10T14:48:25.302Z,3.53
2018-03-10T14:50:51.578Z,2.73
2018-03-10T14:53:17.865Z,2.60
2018-03-10T14:55:44.157Z,2.60
2018-03-10T14:58:10.458Z,3.23
2018-03-10T15:00:36.742Z,3.03
2018-03-10T15:03:03.017Z,3.50
2018-03-10T15:05:29.304Z,3.70
2018-03-10T15:07:55.596Z,3.60
2018-03-10T15:10:22.580Z,3.53
2018-03-10T15:12:48.837Z,3.70
2018-03-10T15:15:15.136Z,3.90
2018-03-10T15:17:41.405Z,3.83
2018-03-10T15:20:07.672Z,4.30
2018-03-10T15:22:34.703Z,3.83
2018-03-10T15:25:01.700Z,3.30
2018-03-10T15:27:27.977Z,3.03
2018-03-10T15:29:55.037Z,3.40
2018-03-10T15:32:21.372Z,3.50
2018-03-10T15:34:47.686Z,3.90
2018-03-10T15:37:14.002Z,3.30
2018-03-10T15:39:40.273Z,3.67
2018-03-10T15:42:06.573Z,4.43
2018-03-10T15:44:32.876Z,4.70
2018-03-10T15:46:59.174Z,4.80
2018-03-10T15:49:25.441Z,4.63
2018-03-10T15:51:51.723Z,4.40
2018-03-10T15:54:18.069Z,5.13
2018-03-10T15:56:44.365Z,5.60
2018-03-10T15:59:11.728Z,5.07
2018-03-10T16:01:37.992Z,3.85
2018-03-10T16:04:04.288Z,3.73
2018-03-10T16:06:30.595Z,4.22
2018-03-10T16:08:57.608Z,4.80
2018-03-10T16:11:23.860Z,4.40
2018-03-10T16:13:50.551Z,4.40
2018-03-10T16:16:16.842Z,5.03
2018-03-10T16:18:43.139Z,4.80
2018-03-10T16:21:09.428Z,5.07
2018-03-10T16:23:35.723Z,5.47
2018-03-10T16:26:01.976Z,5.00
2018-03-10T16:28:28.302Z,4.72
2018-03-10T16:30:54.616Z,5.05
2018-03-10T16:33:20.889Z,5.65
2018-03-10T16:35:47.183Z,5.10
2018-03-10T16:38:14.237Z,4.47
2018-03-10T16:40:40.562Z,4.12
2018-03-10T16:43:06.830Z,5.50
2018-03-10T16:45:33.114Z,5.10
2018-03-10T16:47:59.408Z,4.80
2018-03-10T16:50:25.729Z,4.95
2018-03-10T16:52:51.992Z,4.72
2018-03-10T16:55:18.250Z,4.45
2018-03-10T16:57:45.277Z,4.30
2018-03-10T17:00:11.542Z,5.20
2018-03-10T17:02:37.857Z,4.22
2018-03-10T17:05:04.200Z,4.82
2018-03-10T17:07:30.470Z,5.05
2018-03-10T17:09:56.756Z,5.30
2018-03-10T17:12:23.432Z,4.75
2018-03-10T17:14:49.697Z,6.05
2018-03-10T17:17:16.716Z,6.72
2018-03-10T17:19:43.008Z,5.85
2018-03-10T17:22:09.268Z,5.68
2018-03-10T17:24:35.564Z,6.03
2018-03-10T17:27:02.597Z,7.53
2018-03-10T17:29:29.657Z,6.03
2018-03-10T17:31:56.789Z,6.62
2018-03-10T17:34:23.848Z,7.43
2018-03-10T17:36:50.880Z,6.78
2018-03-10T17:39:17.940Z,7.50
2018-03-10T17:41:44.993Z,8.07
2018-03-10T17:44:11.983Z,8.38
2018-03-10T17:46:38.236Z,7.80
2018-03-10T17:49:04.816Z,9.10
2018-03-10T17:51:31.828Z,8.55
2018-03-10T17:53:58.111Z,8.30
2018-03-10T17:56:24.413Z,10.50
2018-03-10T17:58:52.344Z,9.43
2018-03-10T18:01:18.620Z,10.60
2018-03-10T18:03:45.648Z,10.20
2018-03-10T18:06:11.916Z,9.85
2018-03-10T18:08:38.195Z,11.57
2018-03-10T18:11:04.509Z,11.73
2018-03-10T18:13:30.796Z,9.80
2018-03-10T18:15:57.052Z,11.00
2018-03-10T18:18:23.338Z,11.55
2018-03-10T18:20:50.350Z,10.50
2018-03-10T18:23:16.596Z,10.75
2018-03-10T18:25:42.906Z,10.73
2018-03-10T18:28:09.150Z,12.55
2018-03-10T18:30:35.394Z,12.40
2018-03-10T18:33:01.703Z,12.30
2018-03-10T18:35:28.037Z,11.23
2018-03-10T18:37:54.292Z,11.10
2018-03-10T18:40:21.345Z,12.18
2018-03-10T18:42:48.380Z,11.98
2018-03-10T18:45:14.633Z,11.85
2018-03-10T18:47:41.663Z,12.77
2018-03-10T18:50:08.674Z,13.35
2018-03-10T18:52:34.942Z,12.93
2018-03-10T18:55:01.998Z,12.73
2018-03-10T18:57:29.016Z,12.00
2018-03-10T18:59:55.301Z,12.05
2018-03-10T19:02:21.632Z,12.80
2018-03-10T19:04:47.938Z,13.57
2018-03-10T19:07:15.051Z,13.18
2018-03-10T19:09:41.374Z,11.60
2018-03-10T19:12:07.684Z,12.02
2018-03-10T19:14:33.980Z,12.23
2018-03-10T19:17:01.003Z,13.35
2018-03-10T19:19:27.264Z,11.80
2018-03-10T19:21:53.567Z,12.18
2018-03-10T19:24:19.872Z,13.70
2018-03-10T19:26:46.147Z,13.05
2018-03-10T19:29:13.166Z,12.40
2018-03-10T19:31:39.480Z,13.52
2018-03-10T19:34:05.732Z,12.10
2018-03-10T19:36:31.983Z,12.27
2018-03-10T19:38:59.240Z,11.70
2018-03-10T19:41:25.506Z,11.80
2018-03-10T19:43:51.774Z,11.63
2018-03-10T19:46:18.098Z,13.07
2018-03-10T19:48:44.378Z,14.05
2018-03-10T19:51:10.642Z,14.20
2018-03-10T19:53:36.896Z,12.07
2018-03-10T19:56:03.332Z,12.20
2018-03-10T19:58:30.359Z,10.52
2018-03-10T20:00:56.644Z,11.68
2018-03-10T20:03:22.932Z,14.52
2018-03-10T20:05:49.200Z,14.70
2018-03-10T20:08:15.487Z,14.38
2018-03-10T20:10:41.818Z,13.65
2018-03-10T20:13:08.129Z,12.37
2018-03-10T20:15:34.483Z,14.87
2018-03-10T20:18:00.768Z,13.98
2018-03-10T20:20:27.052Z,14.52
2018-03-10T20:22:54.109Z,12.88
2018-03-10T20:25:21.132Z,12.57
2018-03-10T20:27:47.408Z,11.00
2018-03-10T20:30:13.722Z,13.40
2018-03-10T20:32:40.744Z,12.85
2018-03-10T20:35:07.761Z,12.52
2018-03-10T20:37:34.040Z,11.75
2018-03-10T20:40:01.119Z,10.73
2018-03-10T20:42:27.359Z,12.00
2018-03-10T20:44:53.631Z,12.10
2018-03-10T20:47:19.900Z,11.12
2018-03-10T20:49:46.164Z,12.15
2018-03-10T20:52:12.692Z,12.43
2018-03-10T20:54:39.019Z,11.82
2018-03-10T20:57:05.286Z,11.65
2018-03-10T20:59:31.565Z,13.02
2018-03-10T21:01:57.847Z,13.82
2018-03-10T21:04:24.128Z,12.68
2018-03-10T21:06:50.408Z,12.32
2018-03-10T21:09:16.691Z,14.07
2018-03-10T21:11:43.000Z,12.13
2018-03-10T21:14:09.312Z,11.40
2018-03-10T21:16:43.308Z,10.65
2018-03-10T21:19:09.621Z,12.05
2018-03-10T21:21:35.896Z,10.88
2018-03-10T21:24:02.216Z,11.18
2018-03-10T21:26:29.234Z,11.85
2018-03-10T21:28:55.487Z,11.30
2018-03-10T21:31:22.497Z,12.07
2018-03-10T21:33:48.776Z,9.32
2018-03-10T21:36:15.768Z,9.02
2018-03-10T21:38:42.112Z,11.93
2018-03-10T21:41:08.364Z,9.75
2018-03-10T21:43:34.632Z,9.73
2018-03-10T21:46:00.893Z,11.02
2018-03-10T21:48:27.211Z,9.23
2018-03-10T21:50:53.457Z,10.38
2018-03-10T21:53:19.726Z,10.27
2018-03-10T21:55:46.833Z,9.05
2018-03-10T21:58:13.012Z,11.75
2018-03-10T22:00:40.051Z,10.88
2018-03-10T22:03:07.076Z,11.55
2018-03-10T22:05:33.346Z,11.48
2018-03-10T22:07:59.609Z,10.93
2018-03-10T22:10:25.900Z,10.60
2018-03-10T22:12:52.137Z,9.55
2018-03-10T22:15:18.416Z,10.88
2018-03-10T22:17:44.688Z,10.82
2018-03-10T22:20:11.681Z,10.38
2018-03-10T22:22:38.002Z,10.80
2018-03-10T22:25:04.284Z,10.02
2018-03-10T22:27:31.297Z,10.15
2018-03-10T22:29:57.673Z,9.25
2018-03-10T22:32:24.205Z,9.10
2018-03-10T22:34:51.215Z,9.00
2018-03-10T22:37:17.488Z,10.00
2018-03-10T22:39:43.748Z,9.20
2018-03-10T22:42:10.001Z,10.25
2018-03-10T22:44:36.272Z,9.90
2018-03-10T22:47:03.304Z,11.45
2018-03-10T22:49:30.324Z,11.25
2018-03-10T22:51:56.631Z,11.85
2018-03-10T22:54:23.096Z,11.43
2018-03-10T22:56:49.349Z,10.90
2018-03-10T22:59:16.372Z,10.52
2018-03-10T23:01:42.696Z,10.85
2018-03-10T23:04:08.961Z,11.73
2018-03-10T23:06:35.976Z,9.93
2018-03-10T23:09:02.314Z,11.43
2018-03-10T23:11:28.585Z,12.45
2018-03-10T23:13:54.853Z,12.15
2018-03-10T23:16:21.139Z,11.68
2018-03-10T23:18:47.423Z,12.23
2018-03-10T23:21:13.700Z,10.15
2018-03-10T23:23:40.070Z,12.00
2018-03-10T23:26:06.379Z,12.55
2018-03-10T23:28:33.331Z,11.23
2018-03-10T23:30:59.623Z,12.13
2018-03-10T23:33:26.627Z,12.00
2018-03-10T23:35:52.877Z,11.20
2018-03-10T23:38:19.149Z,10.68
2018-03-10T23:40:45.480Z,12.85
2018-03-10T23:43:11.741Z,11.00
2018-03-10T23:45:38.099Z,12.88
2018-03-10T23:48:05.124Z,12.95
2018-03-10T23:50:31.406Z,12.27
2018-03-10T23:52:57.704Z,12.27
2018-03-10T23:55:23.980Z,13.55
2018-03-10T23:57:50.248Z,12.73
